sensor_id;sensor_type;location;lat;lon;timestamp;P1;durP1;ratioP1;P2;durP2;ratioP2
44169;SDS011;29836;52.286;9.576;2024-03-22T00:00:32;29.73;;;14.40;;
44169;SDS011;29836;52.286;9.576;2024-03-22T00:02:57;27.48;;;15.27;;
44169;SDS011;29836;52.286;9.576;2024-03-22T00:05:23;29.13;;;15.57;;
44169;SDS011;29836;52.286;9.576;2024-03-22T00:07:49;27.65;;;16.20;;
44169;SDS011;29836;52.286;9.576;2024-03-22T00:10:14;30.83;;;16.55;;
44169;SDS011;29836;52.286;9.576;2024-03-22T00:12:40;31.95;;;15.85;;
44169;SDS011;29836;52.286;9.576;2024-03-22T00:15:05;27.90;;;15.25;;
44169;SDS011;29836;52.286;9.576;2024-03-22T00:17:31;29.90;;;16.55;;
44169;SDS011;29836;52.286;9.576;2024-03-22T00:19:58;29.15;;;16.40;;
44169;SDS011;29836;52.286;9.576;2024-03-22T00:22:24;31.00;;;16.02;;
44169;SDS011;29836;52.286;9.576;2024-03-22T00:24:49;31.73;;;17.58;;
44169;SDS011;29836;52.286;9.576;2024-03-22T00:27:15;30.77;;;16.48;;
44169;SDS011;29836;52.286;9.576;2024-03-22T00:29:40;29.75;;;16.30;;
44169;SDS011;29836;52.286;9.576;2024-03-22T00:32:06;30.30;;;16.80;;
44169;SDS011;29836;52.286;9.576;2024-03-22T00:34:32;32.05;;;17.00;;
44169;SDS011;29836;52.286;9.576;2024-03-22T00:36:59;29.75;;;16.60;;
44169;SDS011;29836;52.286;9.576;2024-03-22T00:39:24;32.95;;;17.90;;
44169;SDS011;29836;52.286;9.576;2024-03-22T00:41:50;29.45;;;16.83;;
44169;SDS011;29836;52.286;9.576;2024-03-22T00:44:15;35.60;;;16.58;;
44169;SDS011;29836;52.286;9.576;2024-03-22T00:46:40;32.30;;;17.13;;
44169;SDS011;29836;52.286;9.576;2024-03-22T00:49:06;34.25;;;17.30;;
44169;SDS011;29836;52.286;9.576;2024-03-22T00:51:31;32.47;;;16.98;;
44169;SDS011;29836;52.286;9.576;2024-03-22T00:53:57;36.47;;;17.45;;
44169;SDS011;29836;52.286;9.576;2024-03-22T00:56:22;36.08;;;19.25;;
44169;SDS011;29836;52.286;9.576;2024-03-22T00:58:48;30.25;;;17.02;;
44169;SDS011;29836;52.286;9.576;2024-03-22T01:01:13;34.92;;;18.15;;
44169;SDS011;29836;52.286;9.576;2024-03-22T01:03:39;32.58;;;18.40;;
44169;SDS011;29836;52.286;9.576;2024-03-22T01:06:04;34.92;;;18.10;;
44169;SDS011;29836;52.286;9.576;2024-03-22T01:08:30;35.03;;;19.10;;
44169;SDS011;29836;52.286;9.576;2024-03-22T01:10:56;35.03;;;18.48;;
44169;SDS011;29836;52.286;9.576;2024-03-22T01:13:21;29.73;;;16.98;;
44169;SDS011;29836;52.286;9.576;2024-03-22T01:15:47;32.08;;;17.75;;
44169;SDS011;29836;52.286;9.576;2024-03-22T01:18:13;33.20;;;17.38;;
44169;SDS011;29836;52.286;9.576;2024-03-22T01:20:39;33.67;;;17.52;;
44169;SDS011;29836;52.286;9.576;2024-03-22T01:23:04;32.22;;;17.92;;
44169;SDS011;29836;52.286;9.576;2024-03-22T01:25:30;35.08;;;18.40;;
44169;SDS011;29836;52.286;9.576;2024-03-22T01:27:56;35.25;;;18.60;;
44169;SDS011;29836;52.286;9.576;2024-03-22T01:30:21;33.05;;;18.42;;
44169;SDS011;29836;52.286;9.576;2024-03-22T01:32:47;35.15;;;18.40;;
44169;SDS011;29836;52.286;9.576;2024-03-22T01:35:13;31.30;;;18.38;;
44169;SDS011;29836;52.286;9.576;2024-03-22T01:37:38;39.13;;;18.30;;
44169;SDS011;29836;52.286;9.576;2024-03-22T01:40:04;32.88;;;16.98;;
44169;SDS011;29836;52.286;9.576;2024-03-22T01:42:30;35.28;;;17.77;;
44169;SDS011;29836;52.286;9.576;2024-03-22T01:44:56;32.22;;;17.48;;
44169;SDS011;29836;52.286;9.576;2024-03-22T01:47:21;33.55;;;18.67;;
44169;SDS011;29836;52.286;9.576;2024-03-22T01:49:47;33.85;;;17.17;;
44169;SDS011;29836;52.286;9.576;2024-03-22T01:52:15;32.97;;;17.40;;
44169;SDS011;29836;52.286;9.576;2024-03-22T01:54:41;34.03;;;17.33;;
44169;SDS011;29836;52.286;9.576;2024-03-22T01:57:07;32.65;;;18.25;;
44169;SDS011;29836;52.286;9.576;2024-03-22T01:59:33;35.63;;;18.23;;
44169;SDS011;29836;52.286;9.576;2024-03-22T02:01:59;36.88;;;18.35;;
44169;SDS011;29836;52.286;9.576;2024-03-22T02:04:24;35.47;;;18.27;;
44169;SDS011;29836;52.286;9.576;2024-03-22T02:06:50;34.08;;;18.25;;
44169;SDS011;29836;52.286;9.576;2024-03-22T02:09:15;39.17;;;19.52;;
44169;SDS011;29836;52.286;9.576;2024-03-22T02:11:41;34.40;;;18.67;;
44169;SDS011;29836;52.286;9.576;2024-03-22T02:14:07;36.10;;;19.42;;
44169;SDS011;29836;52.286;9.576;2024-03-22T02:16:33;37.70;;;20.38;;
44169;SDS011;29836;52.286;9.576;2024-03-22T02:18:58;36.70;;;19.05;;
44169;SDS011;29836;52.286;9.576;2024-03-22T02:21:24;38.60;;;20.15;;
44169;SDS011;29836;52.286;9.576;2024-03-22T02:23:49;38.75;;;19.88;;
44169;SDS011;29836;52.286;9.576;2024-03-22T02:26:15;40.15;;;20.70;;
44169;SDS011;29836;52.286;9.576;2024-03-22T02:28:40;40.45;;;20.73;;
44169;SDS011;29836;52.286;9.576;2024-03-22T02:31:06;41.72;;;20.80;;
44169;SDS011;29836;52.286;9.576;2024-03-22T02:33:31;40.58;;;20.35;;
44169;SDS011;29836;52.286;9.576;2024-03-22T02:35:57;40.83;;;20.48;;
44169;SDS011;29836;52.286;9.576;2024-03-22T02:38:23;40.35;;;20.05;;
44169;SDS011;29836;52.286;9.576;2024-03-22T02:40:49;38.90;;;20.77;;
44169;SDS011;29836;52.286;9.576;2024-03-22T02:43:15;39.83;;;20.55;;
44169;SDS011;29836;52.286;9.576;2024-03-22T02:45:43;38.08;;;18.95;;
44169;SDS011;29836;52.286;9.576;2024-03-22T02:48:09;37.60;;;19.13;;
44169;SDS011;29836;52.286;9.576;2024-03-22T02:50:38;38.08;;;18.50;;
44169;SDS011;29836;52.286;9.576;2024-03-22T02:53:04;36.70;;;19.73;;
44169;SDS011;29836;52.286;9.576;2024-03-22T02:55:30;41.05;;;19.90;;
44169;SDS011;29836;52.286;9.576;2024-03-22T02:58:00;38.20;;;20.20;;
44169;SDS011;29836;52.286;9.576;2024-03-22T03:00:26;40.58;;;20.63;;
44169;SDS011;29836;52.286;9.576;2024-03-22T03:02:52;40.58;;;20.42;;
44169;SDS011;29836;52.286;9.576;2024-03-22T03:05:17;40.80;;;19.10;;
44169;SDS011;29836;52.286;9.576;2024-03-22T03:07:43;38.40;;;20.25;;
44169;SDS011;29836;52.286;9.576;2024-03-22T03:10:09;41.05;;;20.45;;
44169;SDS011;29836;52.286;9.576;2024-03-22T03:12:35;37.08;;;19.15;;
44169;SDS011;29836;52.286;9.576;2024-03-22T03:15:00;40.60;;;20.13;;
44169;SDS011;29836;52.286;9.576;2024-03-22T03:17:27;38.55;;;19.42;;
44169;SDS011;29836;52.286;9.576;2024-03-22T03:19:53;41.35;;;20.23;;
44169;SDS011;29836;52.286;9.576;2024-03-22T03:22:18;43.53;;;20.80;;
44169;SDS011;29836;52.286;9.576;2024-03-22T03:24:44;42.63;;;20.65;;
44169;SDS011;29836;52.286;9.576;2024-03-22T03:27:09;44.65;;;21.17;;
44169;SDS011;29836;52.286;9.576;2024-03-22T03:29:35;41.83;;;20.52;;
44169;SDS011;29836;52.286;9.576;2024-03-22T03:32:01;42.92;;;21.30;;
44169;SDS011;29836;52.286;9.576;2024-03-22T03:34:26;40.60;;;19.75;;
44169;SDS011;29836;52.286;9.576;2024-03-22T03:36:52;42.60;;;21.90;;
44169;SDS011;29836;52.286;9.576;2024-03-22T03:39:17;40.88;;;20.38;;
44169;SDS011;29836;52.286;9.576;2024-03-22T03:41:43;42.47;;;20.98;;
44169;SDS011;29836;52.286;9.576;2024-03-22T03:44:08;42.63;;;21.17;;
44169;SDS011;29836;52.286;9.576;2024-03-22T03:46:34;40.05;;;19.92;;
44169;SDS011;29836;52.286;9.576;2024-03-22T03:48:59;43.28;;;21.02;;
44169;SDS011;29836;52.286;9.576;2024-03-22T03:51:25;44.92;;;21.10;;
44169;SDS011;29836;52.286;9.576;2024-03-22T03:53:50;44.95;;;21.77;;
44169;SDS011;29836;52.286;9.576;2024-03-22T03:56:16;47.72;;;22.15;;
44169;SDS011;29836;52.286;9.576;2024-03-22T03:58:41;47.60;;;22.13;;
44169;SDS011;29836;52.286;9.576;2024-03-22T04:01:07;52.30;;;22.90;;
44169;SDS011;29836;52.286;9.576;2024-03-22T04:03:33;50.33;;;23.30;;
44169;SDS011;29836;52.286;9.576;2024-03-22T04:05:59;50.58;;;24.55;;
44169;SDS011;29836;52.286;9.576;2024-03-22T04:08:25;52.63;;;23.85;;
44169;SDS011;29836;52.286;9.576;2024-03-22T04:10:52;52.38;;;22.67;;
44169;SDS011;29836;52.286;9.576;2024-03-22T04:13:18;48.97;;;22.20;;
44169;SDS011;29836;52.286;9.576;2024-03-22T04:15:43;47.80;;;22.63;;
44169;SDS011;29836;52.286;9.576;2024-03-22T04:18:09;49.45;;;22.60;;
44169;SDS011;29836;52.286;9.576;2024-03-22T04:20:34;47.55;;;22.35;;
44169;SDS011;29836;52.286;9.576;2024-03-22T04:23:00;50.75;;;22.65;;
44169;SDS011;29836;52.286;9.576;2024-03-22T04:25:25;49.25;;;22.85;;
44169;SDS011;29836;52.286;9.576;2024-03-22T04:27:51;52.60;;;23.63;;
44169;SDS011;29836;52.286;9.576;2024-03-22T04:30:16;52.97;;;23.95;;
44169;SDS011;29836;52.286;9.576;2024-03-22T04:32:42;47.92;;;22.83;;
44169;SDS011;29836;52.286;9.576;2024-03-22T04:35:10;49.45;;;22.83;;
44169;SDS011;29836;52.286;9.576;2024-03-22T04:37:36;46.95;;;22.95;;
44169;SDS011;29836;52.286;9.576;2024-03-22T04:40:01;49.50;;;23.08;;
44169;SDS011;29836;52.286;9.576;2024-03-22T04:42:27;53.58;;;23.67;;
44169;SDS011;29836;52.286;9.576;2024-03-22T04:44:53;54.38;;;24.40;;
44169;SDS011;29836;52.286;9.576;2024-03-22T04:47:19;53.05;;;23.70;;
44169;SDS011;29836;52.286;9.576;2024-03-22T04:49:45;53.65;;;23.40;;
44169;SDS011;29836;52.286;9.576;2024-03-22T04:52:11;55.40;;;23.75;;
44169;SDS011;29836;52.286;9.576;2024-03-22T04:54:36;50.22;;;23.02;;
44169;SDS011;29836;52.286;9.576;2024-03-22T04:57:02;49.08;;;23.48;;
44169;SDS011;29836;52.286;9.576;2024-03-22T04:59:27;49.08;;;22.15;;
44169;SDS011;29836;52.286;9.576;2024-03-22T05:01:53;49.70;;;23.48;;
44169;SDS011;29836;52.286;9.576;2024-03-22T05:04:18;50.08;;;23.10;;
44169;SDS011;29836;52.286;9.576;2024-03-22T05:06:44;53.97;;;23.88;;
44169;SDS011;29836;52.286;9.576;2024-03-22T05:09:09;54.85;;;24.15;;
44169;SDS011;29836;52.286;9.576;2024-03-22T05:11:35;52.70;;;23.60;;
44169;SDS011;29836;52.286;9.576;2024-03-22T05:14:01;50.08;;;23.67;;
44169;SDS011;29836;52.286;9.576;2024-03-22T05:16:27;49.60;;;23.58;;
44169;SDS011;29836;52.286;9.576;2024-03-22T05:18:53;46.83;;;22.88;;
44169;SDS011;29836;52.286;9.576;2024-03-22T05:21:18;51.40;;;22.88;;
44169;SDS011;29836;52.286;9.576;2024-03-22T05:23:44;47.88;;;21.77;;
44169;SDS011;29836;52.286;9.576;2024-03-22T05:26:09;49.60;;;23.33;;
44169;SDS011;29836;52.286;9.576;2024-03-22T05:28:35;56.17;;;23.98;;
44169;SDS011;29836;52.286;9.576;2024-03-22T05:31:00;53.50;;;22.60;;
44169;SDS011;29836;52.286;9.576;2024-03-22T05:33:26;49.13;;;22.55;;
44169;SDS011;29836;52.286;9.576;2024-03-22T05:35:52;47.30;;;22.08;;
44169;SDS011;29836;52.286;9.576;2024-03-22T05:38:18;45.20;;;21.63;;
44169;SDS011;29836;52.286;9.576;2024-03-22T05:40:43;46.97;;;22.90;;
44169;SDS011;29836;52.286;9.576;2024-03-22T05:43:11;49.78;;;22.17;;
44169;SDS011;29836;52.286;9.576;2024-03-22T05:45:37;45.65;;;22.05;;
44169;SDS011;29836;52.286;9.576;2024-03-22T05:48:03;49.03;;;22.42;;
44169;SDS011;29836;52.286;9.576;2024-03-22T05:50:29;46.92;;;22.23;;
44169;SDS011;29836;52.286;9.576;2024-03-22T05:52:54;48.65;;;22.83;;
44169;SDS011;29836;52.286;9.576;2024-03-22T05:55:20;45.10;;;20.60;;
44169;SDS011;29836;52.286;9.576;2024-03-22T05:57:45;41.35;;;20.17;;
44169;SDS011;29836;52.286;9.576;2024-03-22T06:00:11;39.60;;;19.75;;
44169;SDS011;29836;52.286;9.576;2024-03-22T06:02:38;37.10;;;19.42;;
44169;SDS011;29836;52.286;9.576;2024-03-22T06:05:04;39.85;;;19.63;;
44169;SDS011;29836;52.286;9.576;2024-03-22T06:07:30;46.35;;;20.42;;
44169;SDS011;29836;52.286;9.576;2024-03-22T06:10:03;33.45;;;17.95;;
44169;SDS011;29836;52.286;9.576;2024-03-22T06:12:29;38.55;;;18.42;;
44169;SDS011;29836;52.286;9.576;2024-03-22T06:14:55;33.83;;;17.95;;
44169;SDS011;29836;52.286;9.576;2024-03-22T06:17:20;37.92;;;18.25;;
44169;SDS011;29836;52.286;9.576;2024-03-22T06:19:46;36.97;;;18.58;;
44169;SDS011;29836;52.286;9.576;2024-03-22T06:22:12;36.33;;;17.77;;
44169;SDS011;29836;52.286;9.576;2024-03-22T06:24:37;35.30;;;17.20;;
44169;SDS011;29836;52.286;9.576;2024-03-22T06:27:03;35.85;;;17.25;;
44169;SDS011;29836;52.286;9.576;2024-03-22T06:29:29;35.03;;;16.65;;
44169;SDS011;29836;52.286;9.576;2024-03-22T06:31:54;37.65;;;16.67;;
44169;SDS011;29836;52.286;9.576;2024-03-22T06:34:20;34.47;;;16.15;;
44169;SDS011;29836;52.286;9.576;2024-03-22T06:36:45;32.38;;;15.73;;
44169;SDS011;29836;52.286;9.576;2024-03-22T06:39:12;32.90;;;15.45;;
44169;SDS011;29836;52.286;9.576;2024-03-22T06:41:37;27.45;;;15.30;;
44169;SDS011;29836;52.286;9.576;2024-03-22T06:44:03;30.45;;;15.45;;
44169;SDS011;29836;52.286;9.576;2024-03-22T06:46:29;29.42;;;15.15;;
44169;SDS011;29836;52.286;9.576;2024-03-22T06:48:55;32.83;;;15.63;;
44169;SDS011;29836;52.286;9.576;2024-03-22T06:51:20;29.65;;;15.70;;
44169;SDS011;29836;52.286;9.576;2024-03-22T06:53:46;32.63;;;15.60;;
44169;SDS011;29836;52.286;9.576;2024-03-22T06:56:12;27.02;;;14.23;;
44169;SDS011;29836;52.286;9.576;2024-03-22T06:58:38;29.83;;;14.88;;
44169;SDS011;29836;52.286;9.576;2024-03-22T07:01:04;33.95;;;14.63;;
44169;SDS011;29836;52.286;9.576;2024-03-22T07:03:30;27.10;;;13.68;;
44169;SDS011;29836;52.286;9.576;2024-03-22T07:05:56;29.95;;;15.27;;
44169;SDS011;29836;52.286;9.576;2024-03-22T07:08:22;32.17;;;15.10;;
44169;SDS011;29836;52.286;9.576;2024-03-22T07:10:48;27.52;;;14.10;;
44169;SDS011;29836;52.286;9.576;2024-03-22T07:13:15;26.23;;;14.57;;
44169;SDS011;29836;52.286;9.576;2024-03-22T07:15:41;27.63;;;13.90;;
44169;SDS011;29836;52.286;9.576;2024-03-22T07:18:08;28.70;;;13.63;;
44169;SDS011;29836;52.286;9.576;2024-03-22T07:20:34;28.33;;;13.38;;
44169;SDS011;29836;52.286;9.576;2024-03-22T07:22:59;26.02;;;13.70;;
44169;SDS011;29836;52.286;9.576;2024-03-22T07:25:25;29.05;;;13.52;;
44169;SDS011;29836;52.286;9.576;2024-03-22T07:27:51;26.80;;;13.25;;
44169;SDS011;29836;52.286;9.576;2024-03-22T07:30:16;32.72;;;13.75;;
44169;SDS011;29836;52.286;9.576;2024-03-22T07:32:42;32.20;;;13.52;;
44169;SDS011;29836;52.286;9.576;2024-03-22T07:35:07;25.13;;;13.38;;
44169;SDS011;29836;52.286;9.576;2024-03-22T07:37:33;26.40;;;12.85;;
44169;SDS011;29836;52.286;9.576;2024-03-22T07:40:03;25.83;;;13.73;;
44169;SDS011;29836;52.286;9.576;2024-03-22T07:42:30;24.25;;;13.02;;
44169;SDS011;29836;52.286;9.576;2024-03-22T07:44:55;24.65;;;12.65;;
44169;SDS011;29836;52.286;9.576;2024-03-22T07:47:21;25.70;;;12.70;;
44169;SDS011;29836;52.286;9.576;2024-03-22T07:49:47;24.17;;;12.93;;
44169;SDS011;29836;52.286;9.576;2024-03-22T07:52:12;25.20;;;11.90;;
44169;SDS011;29836;52.286;9.576;2024-03-22T07:54:37;21.75;;;11.68;;
44169;SDS011;29836;52.286;9.576;2024-03-22T07:57:03;23.98;;;12.18;;
44169;SDS011;29836;52.286;9.576;2024-03-22T07:59:29;21.40;;;11.65;;
44169;SDS011;29836;52.286;9.576;2024-03-22T08:01:54;22.95;;;12.20;;
44169;SDS011;29836;52.286;9.576;2024-03-22T08:04:20;24.52;;;12.15;;
44169;SDS011;29836;52.286;9.576;2024-03-22T08:06:45;21.38;;;11.30;;
44169;SDS011;29836;52.286;9.576;2024-03-22T08:09:11;20.13;;;11.05;;
44169;SDS011;29836;52.286;9.576;2024-03-22T08:11:36;25.80;;;11.77;;
44169;SDS011;29836;52.286;9.576;2024-03-22T08:14:02;21.35;;;11.55;;
44169;SDS011;29836;52.286;9.576;2024-03-22T08:16:31;22.70;;;11.50;;
44169;SDS011;29836;52.286;9.576;2024-03-22T08:18:57;20.27;;;11.40;;
44169;SDS011;29836;52.286;9.576;2024-03-22T08:21:23;21.33;;;10.82;;
44169;SDS011;29836;52.286;9.576;2024-03-22T08:23:49;21.75;;;11.30;;
44169;SDS011;29836;52.286;9.576;2024-03-22T08:26:15;20.52;;;10.98;;
44169;SDS011;29836;52.286;9.576;2024-03-22T08:28:41;17.23;;;10.30;;
44169;SDS011;29836;52.286;9.576;2024-03-22T08:31:06;18.75;;;10.80;;
44169;SDS011;29836;52.286;9.576;2024-03-22T08:33:32;22.20;;;10.55;;
44169;SDS011;29836;52.286;9.576;2024-03-22T08:35:57;23.02;;;11.05;;
44169;SDS011;29836;52.286;9.576;2024-03-22T08:38:23;20.17;;;10.52;;
44169;SDS011;29836;52.286;9.576;2024-03-22T08:40:49;21.52;;;10.50;;
44169;SDS011;29836;52.286;9.576;2024-03-22T08:43:15;21.42;;;10.30;;
44169;SDS011;29836;52.286;9.576;2024-03-22T08:45:41;22.77;;;10.70;;
44169;SDS011;29836;52.286;9.576;2024-03-22T08:48:07;20.25;;;10.23;;
44169;SDS011;29836;52.286;9.576;2024-03-22T08:50:33;18.58;;;9.60;;
44169;SDS011;29836;52.286;9.576;2024-03-22T08:52:59;22.10;;;10.35;;
44169;SDS011;29836;52.286;9.576;2024-03-22T08:55:29;20.80;;;10.40;;
44169;SDS011;29836;52.286;9.576;2024-03-22T08:57:54;23.98;;;10.35;;
44169;SDS011;29836;52.286;9.576;2024-03-22T09:00:20;22.23;;;10.13;;
44169;SDS011;29836;52.286;9.576;2024-03-22T09:02:45;18.50;;;9.77;;
44169;SDS011;29836;52.286;9.576;2024-03-22T09:05:12;17.85;;;10.07;;
44169;SDS011;29836;52.286;9.576;2024-03-22T09:07:37;14.77;;;8.88;;
44169;SDS011;29836;52.286;9.576;2024-03-22T09:10:03;17.52;;;9.10;;
44169;SDS011;29836;52.286;9.576;2024-03-22T09:12:29;17.48;;;8.95;;
44169;SDS011;29836;52.286;9.576;2024-03-22T09:14:55;16.92;;;8.82;;
44169;SDS011;29836;52.286;9.576;2024-03-22T09:17:20;18.55;;;8.90;;
44169;SDS011;29836;52.286;9.576;2024-03-22T09:19:46;18.55;;;8.80;;
44169;SDS011;29836;52.286;9.576;2024-03-22T09:22:12;16.23;;;9.10;;
44169;SDS011;29836;52.286;9.576;2024-03-22T09:24:38;16.73;;;9.20;;
44169;SDS011;29836;52.286;9.576;2024-03-22T09:27:03;14.60;;;8.45;;
44169;SDS011;29836;52.286;9.576;2024-03-22T09:29:33;17.35;;;8.75;;
44169;SDS011;29836;52.286;9.576;2024-03-22T09:31:59;15.82;;;8.80;;
44169;SDS011;29836;52.286;9.576;2024-03-22T09:34:24;16.08;;;9.05;;
44169;SDS011;29836;52.286;9.576;2024-03-22T09:36:50;17.40;;;9.50;;
44169;SDS011;29836;52.286;9.576;2024-03-22T09:39:15;17.95;;;8.93;;
44169;SDS011;29836;52.286;9.576;2024-03-22T09:41:42;18.15;;;8.98;;
44169;SDS011;29836;52.286;9.576;2024-03-22T09:44:10;14.40;;;8.68;;
44169;SDS011;29836;52.286;9.576;2024-03-22T09:46:42;15.13;;;8.57;;
44169;SDS011;29836;52.286;9.576;2024-03-22T09:49:08;19.25;;;8.75;;
44169;SDS011;29836;52.286;9.576;2024-03-22T09:51:36;13.77;;;8.20;;
44169;SDS011;29836;52.286;9.576;2024-03-22T09:54:02;16.20;;;9.00;;
44169;SDS011;29836;52.286;9.576;2024-03-22T09:56:28;14.45;;;8.20;;
44169;SDS011;29836;52.286;9.576;2024-03-22T09:58:56;16.17;;;8.77;;
44169;SDS011;29836;52.286;9.576;2024-03-22T10:01:23;15.85;;;8.75;;
44169;SDS011;29836;52.286;9.576;2024-03-22T10:03:51;16.90;;;8.38;;
44169;SDS011;29836;52.286;9.576;2024-03-22T10:06:17;14.85;;;8.15;;
44169;SDS011;29836;52.286;9.576;2024-03-22T10:08:43;12.95;;;7.32;;
44169;SDS011;29836;52.286;9.576;2024-03-22T10:11:09;14.98;;;8.27;;
44169;SDS011;29836;52.286;9.576;2024-03-22T10:13:35;15.73;;;9.07;;
44169;SDS011;29836;52.286;9.576;2024-03-22T10:16:01;17.23;;;9.32;;
44169;SDS011;29836;52.286;9.576;2024-03-22T10:18:27;17.67;;;9.40;;
44169;SDS011;29836;52.286;9.576;2024-03-22T10:21:04;16.00;;;9.00;;
44169;SDS011;29836;52.286;9.576;2024-03-22T10:23:30;15.68;;;8.43;;
44169;SDS011;29836;52.286;9.576;2024-03-22T10:25:56;15.20;;;8.45;;
44169;SDS011;29836;52.286;9.576;2024-03-22T10:28:25;20.40;;;8.82;;
44169;SDS011;29836;52.286;9.576;2024-03-22T10:30:51;21.33;;;8.63;;
44169;SDS011;29836;52.286;9.576;2024-03-22T10:33:20;15.82;;;8.05;;
44169;SDS011;29836;52.286;9.576;2024-03-22T10:35:50;16.35;;;8.60;;
44169;SDS011;29836;52.286;9.576;2024-03-22T10:38:18;18.98;;;9.40;;
44169;SDS011;29836;52.286;9.576;2024-03-22T10:40:44;16.17;;;9.20;;
44169;SDS011;29836;52.286;9.576;2024-03-22T10:43:11;19.23;;;9.90;;
44169;SDS011;29836;52.286;9.576;2024-03-22T10:45:38;19.00;;;9.90;;
44169;SDS011;29836;52.286;9.576;2024-03-22T10:48:05;17.48;;;9.93;;
44169;SDS011;29836;52.286;9.576;2024-03-22T10:50:39;19.13;;;9.48;;
44169;SDS011;29836;52.286;9.576;2024-03-22T10:53:07;17.15;;;9.70;;
44169;SDS011;29836;52.286;9.576;2024-03-22T10:55:38;18.30;;;9.35;;
44169;SDS011;29836;52.286;9.576;2024-03-22T10:58:16;17.58;;;10.38;;
44169;SDS011;29836;52.286;9.576;2024-03-22T11:00:43;17.00;;;9.82;;
44169;SDS011;29836;52.286;9.576;2024-03-22T11:03:09;19.08;;;9.95;;
44169;SDS011;29836;52.286;9.576;2024-03-22T11:05:44;19.13;;;10.30;;
44169;SDS011;29836;52.286;9.576;2024-03-22T11:08:10;19.33;;;10.10;;
44169;SDS011;29836;52.286;9.576;2024-03-22T11:10:36;16.23;;;9.23;;
44169;SDS011;29836;52.286;9.576;2024-03-22T11:13:02;17.67;;;9.20;;
44169;SDS011;29836;52.286;9.576;2024-03-22T11:15:29;16.95;;;9.07;;
44169;SDS011;29836;52.286;9.576;2024-03-22T11:17:56;18.90;;;10.10;;
44169;SDS011;29836;52.286;9.576;2024-03-22T11:20:22;16.15;;;9.55;;
44169;SDS011;29836;52.286;9.576;2024-03-22T11:22:47;18.02;;;10.30;;
44169;SDS011;29836;52.286;9.576;2024-03-22T11:25:13;16.77;;;9.82;;
44169;SDS011;29836;52.286;9.576;2024-03-22T11:27:38;17.05;;;9.43;;
44169;SDS011;29836;52.286;9.576;2024-03-22T11:30:04;17.42;;;10.00;;
44169;SDS011;29836;52.286;9.576;2024-03-22T11:32:30;15.75;;;9.18;;
44169;SDS011;29836;52.286;9.576;2024-03-22T11:34:56;17.98;;;9.80;;
44169;SDS011;29836;52.286;9.576;2024-03-22T11:37:22;19.25;;;9.50;;
44169;SDS011;29836;52.286;9.576;2024-03-22T11:39:48;19.42;;;9.27;;
44169;SDS011;29836;52.286;9.576;2024-03-22T11:42:14;16.70;;;9.25;;
44169;SDS011;29836;52.286;9.576;2024-03-22T11:44:41;16.42;;;9.25;;
44169;SDS011;29836;52.286;9.576;2024-03-22T11:47:08;13.98;;;8.80;;
44169;SDS011;29836;52.286;9.576;2024-03-22T11:49:34;18.13;;;9.55;;
44169;SDS011;29836;52.286;9.576;2024-03-22T11:52:00;19.52;;;10.00;;
44169;SDS011;29836;52.286;9.576;2024-03-22T11:54:26;18.83;;;9.52;;
44169;SDS011;29836;52.286;9.576;2024-03-22T11:56:51;16.17;;;9.45;;
44169;SDS011;29836;52.286;9.576;2024-03-22T11:59:20;17.45;;;9.23;;
44169;SDS011;29836;52.286;9.576;2024-03-22T12:01:46;15.75;;;8.30;;
44169;SDS011;29836;52.286;9.576;2024-03-22T12:04:12;15.93;;;9.23;;
44169;SDS011;29836;52.286;9.576;2024-03-22T12:06:41;20.58;;;9.45;;
44169;SDS011;29836;52.286;9.576;2024-03-22T12:09:10;15.95;;;8.98;;
44169;SDS011;29836;52.286;9.576;2024-03-22T12:11:37;17.90;;;9.60;;
44169;SDS011;29836;52.286;9.576;2024-03-22T12:14:04;20.75;;;10.02;;
44169;SDS011;29836;52.286;9.576;2024-03-22T12:16:29;20.42;;;10.20;;
44169;SDS011;29836;52.286;9.576;2024-03-22T12:18:55;15.90;;;9.27;;
44169;SDS011;29836;52.286;9.576;2024-03-22T12:21:21;18.60;;;9.70;;
44169;SDS011;29836;52.286;9.576;2024-03-22T12:23:46;18.58;;;11.07;;
44169;SDS011;29836;52.286;9.576;2024-03-22T12:26:12;17.48;;;10.68;;
44169;SDS011;29836;52.286;9.576;2024-03-22T12:28:38;20.70;;;10.85;;
44169;SDS011;29836;52.286;9.576;2024-03-22T12:31:04;18.48;;;10.77;;
44169;SDS011;29836;52.286;9.576;2024-03-22T12:33:29;24.38;;;11.38;;
44169;SDS011;29836;52.286;9.576;2024-03-22T12:35:55;19.90;;;10.93;;
44169;SDS011;29836;52.286;9.576;2024-03-22T12:38:20;17.75;;;10.95;;
44169;SDS011;29836;52.286;9.576;2024-03-22T12:40:46;17.58;;;10.23;;
44169;SDS011;29836;52.286;9.576;2024-03-22T12:43:11;20.20;;;11.30;;
44169;SDS011;29836;52.286;9.576;2024-03-22T12:45:37;18.95;;;11.20;;
44169;SDS011;29836;52.286;9.576;2024-03-22T12:48:03;20.80;;;11.02;;
44169;SDS011;29836;52.286;9.576;2024-03-22T12:50:29;22.10;;;10.07;;
44169;SDS011;29836;52.286;9.576;2024-03-22T12:52:55;19.05;;;11.48;;
44169;SDS011;29836;52.286;9.576;2024-03-22T12:55:21;18.20;;;10.73;;
44169;SDS011;29836;52.286;9.576;2024-03-22T12:57:47;19.05;;;11.18;;
44169;SDS011;29836;52.286;9.576;2024-03-22T13:00:12;18.38;;;11.35;;
44169;SDS011;29836;52.286;9.576;2024-03-22T13:02:43;18.45;;;11.27;;
44169;SDS011;29836;52.286;9.576;2024-03-22T13:05:09;25.45;;;10.25;;
44169;SDS011;29836;52.286;9.576;2024-03-22T13:07:35;18.08;;;10.73;;
44169;SDS011;29836;52.286;9.576;2024-03-22T13:10:00;20.40;;;11.18;;
44169;SDS011;29836;52.286;9.576;2024-03-22T13:12:26;21.00;;;11.05;;
44169;SDS011;29836;52.286;9.576;2024-03-22T13:14:53;18.50;;;11.00;;
44169;SDS011;29836;52.286;9.576;2024-03-22T13:17:19;17.85;;;11.30;;
44169;SDS011;29836;52.286;9.576;2024-03-22T13:19:45;22.10;;;12.13;;
44169;SDS011;29836;52.286;9.576;2024-03-22T13:22:11;19.98;;;11.55;;
44169;SDS011;29836;52.286;9.576;2024-03-22T13:24:37;19.48;;;11.60;;
44169;SDS011;29836;52.286;9.576;2024-03-22T13:27:03;22.75;;;11.02;;
44169;SDS011;29836;52.286;9.576;2024-03-22T13:29:28;20.30;;;12.05;;
44169;SDS011;29836;52.286;9.576;2024-03-22T13:31:54;19.83;;;11.25;;
44169;SDS011;29836;52.286;9.576;2024-03-22T13:34:20;19.15;;;11.75;;
44169;SDS011;29836;52.286;9.576;2024-03-22T13:36:45;24.45;;;12.48;;
44169;SDS011;29836;52.286;9.576;2024-03-22T13:39:11;19.83;;;12.18;;
44169;SDS011;29836;52.286;9.576;2024-03-22T13:41:40;22.42;;;11.80;;
44169;SDS011;29836;52.286;9.576;2024-03-22T13:44:06;22.70;;;12.57;;
44169;SDS011;29836;52.286;9.576;2024-03-22T13:46:33;19.60;;;12.05;;
44169;SDS011;29836;52.286;9.576;2024-03-22T13:49:01;22.50;;;12.80;;
44169;SDS011;29836;52.286;9.576;2024-03-22T13:51:29;22.88;;;12.40;;
44169;SDS011;29836;52.286;9.576;2024-03-22T13:53:56;23.23;;;12.50;;
44169;SDS011;29836;52.286;9.576;2024-03-22T13:56:22;22.65;;;12.32;;
44169;SDS011;29836;52.286;9.576;2024-03-22T13:58:47;19.77;;;12.05;;
44169;SDS011;29836;52.286;9.576;2024-03-22T14:01:14;21.00;;;12.93;;
44169;SDS011;29836;52.286;9.576;2024-03-22T14:03:40;22.25;;;12.75;;
44169;SDS011;29836;52.286;9.576;2024-03-22T14:06:05;24.92;;;12.82;;
44169;SDS011;29836;52.286;9.576;2024-03-22T14:08:31;18.85;;;11.77;;
44169;SDS011;29836;52.286;9.576;2024-03-22T14:10:56;22.00;;;11.95;;
44169;SDS011;29836;52.286;9.576;2024-03-22T14:13:22;20.48;;;11.88;;
44169;SDS011;29836;52.286;9.576;2024-03-22T14:15:48;19.23;;;11.60;;